Terminal Aerodrome Forecast
Issued by NWS Jackson, KY

Home | Current Version | Previous Version | Text Only | Print | Product List | Glossary On
Versions: 1 2 3 4 5 6 7 8 9 10 11 12 13 14 15
000
FTUS43 KJKL 271122
TAFLOZ
TAF
KLOZ 271122Z 2712/2812 00000KT 6SM -SHRA BR OVC030
     FM271500 VRB05KT P6SM -SHRA BKN030
     FM271700 27009G18KT P6SM VCTS BKN030CB=

USA.gov is the U.S. government's official web portal to all federal, state and local government web resources and services.